Time;durP1;ratioP1;P1;durP2;ratioP2;P2;SDS_P1;SDS_P2;PMS_P1;PMS_P2;Temp;Humidity;BMP_temperature;BMP_pressure;BME280_temperature;BME280_humidity;BME280_pressure;Samples;Min_cycle;Max_cycle;Signal;HPM_P1;HPM_P2
2022/01/05 00:01:35;;;;;;;1.55;0.70;;;8.00;1.00;;;;;;6127193;23;20021;-84
2022/01/05 00:04:01;;;;;;;0.90;0.70;;;8.10;1.00;;;;;;6126639;23;20017;-84
2022/01/05 00:06:26;;;;;;;1.05;0.70;;;8.00;1.00;;;;;;6125821;23;20417;-84
2022/01/05 00:08:52;;;;;;;0.60;0.50;;;7.90;1.00;;;;;;6126179;23;20008;-84
2022/01/05 00:11:17;;;;;;;3.65;0.80;;;7.60;1.00;;;;;;6126823;23;20444;-84
2022/01/05 00:13:43;;;;;;;1.50;1.00;;;7.80;1.00;;;;;;6126248;23;20002;-84
2022/01/05 00:16:09;;;;;;;3.08;1.15;;;7.90;3.00;;;;;;6126836;23;20024;-84
2022/01/05 00:18:35;;;;;;;3.35;1.33;;;8.10;1.00;;;;;;6126665;23;20369;-84
2022/01/05 00:21:03;;;;;;;2.25;0.90;;;8.40;1.00;;;;;;6125354;23;20052;-84
2022/01/05 00:23:29;;;;;;;2.30;1.30;;;8.20;1.00;;;;;;6126583;23;20038;-84
2022/01/05 00:25:54;;;;;;;3.10;1.35;;;8.20;1.00;;;;;;6126743;23;20033;-84
2022/01/05 00:28:20;;;;;;;2.10;1.15;;;8.20;1.00;;;;;;6126032;23;20006;-84
2022/01/05 00:30:45;;;;;;;2.65;0.88;;;8.80;1.00;;;;;;6126651;23;20118;-84
2022/01/05 00:33:12;;;;;;;1.88;0.88;;;8.20;1.00;;;;;;6126673;23;20002;-83
2022/01/05 00:35:37;;;;;;;2.65;0.90;;;8.50;1.00;;;;;;6124797;23;20529;-83
2022/01/05 00:38:03;;;;;;;1.90;0.88;;;8.40;1.00;;;;;;6125932;23;20029;-84
2022/01/05 00:40:29;;;;;;;1.70;0.70;;;8.90;1.00;;;;;;6126534;23;20041;-84
2022/01/05 00:42:55;;;;;;;1.60;0.80;;;8.30;1.00;;;;;;6126179;23;20066;-84
2022/01/05 00:45:21;;;;;;;1.98;0.73;;;8.20;1.00;;;;;;6099361;23;20029;-84
2022/01/05 00:47:46;;;;;;;0.70;0.60;;;8.10;1.00;;;;;;6126212;23;20002;-84
2022/01/05 00:50:12;;;;;;;2.65;1.02;;;8.20;1.00;;;;;;6124966;23;20002;-84
2022/01/05 00:52:38;;;;;;;2.30;0.68;;;8.30;1.00;;;;;;6126611;23;20002;-84
2022/01/05 00:55:04;;;;;;;1.15;0.70;;;8.90;1.00;;;;;;6126193;23;20059;-84
2022/01/05 00:57:29;;;;;;;2.50;1.00;;;8.30;1.00;;;;;;6125877;23;20010;-84
2022/01/05 00:59:55;;;;;;;0.73;0.60;;;8.30;1.00;;;;;;6125984;23;20002;-83
2022/01/05 01:02:21;;;;;;;1.40;0.80;;;8.30;1.00;;;;;;6126090;23;20081;-84
2022/01/05 01:04:46;;;;;;;0.68;0.40;;;8.30;1.00;;;;;;6125215;23;19998;-84
2022/01/05 01:07:12;;;;;;;1.58;0.73;;;8.10;1.00;;;;;;6126656;23;20002;-84
2022/01/05 01:09:38;;;;;;;1.63;0.90;;;8.10;1.00;;;;;;6125085;23;20006;-84
2022/01/05 01:12:04;;;;;;;3.08;1.20;;;8.00;1.00;;;;;;6125704;23;20009;-84
2022/01/05 01:14:29;;;;;;;2.92;0.95;;;8.10;1.00;;;;;;6126344;23;20018;-84
2022/01/05 01:16:55;;;;;;;0.80;0.70;;;8.20;1.00;;;;;;6126299;23;20059;-84
2022/01/05 01:19:21;;;;;;;1.23;0.70;;;8.70;1.00;;;;;;6125708;23;20065;-84
2022/01/05 01:21:46;;;;;;;0.90;0.60;;;8.30;1.00;;;;;;6125728;23;20034;-84
2022/01/05 01:24:12;;;;;;;1.40;0.60;;;8.50;1.00;;;;;;6125443;23;20023;-84
2022/01/05 01:26:37;;;;;;;2.65;0.70;;;8.60;1.00;;;;;;6125185;23;20084;-84
2022/01/05 01:29:03;;;;;;;1.33;0.50;;;8.20;1.00;;;;;;6125958;23;20060;-84
2022/01/05 01:31:29;;;;;;;1.98;0.88;;;8.70;1.00;;;;;;6125490;23;20006;-84
2022/01/05 01:33:55;;;;;;;2.75;1.00;;;8.20;1.00;;;;;;6125950;23;20006;-84
2022/01/05 01:36:20;;;;;;;1.42;0.95;;;8.40;1.00;;;;;;6125555;23;20017;-84
2022/01/05 01:38:46;;;;;;;1.35;0.90;;;8.60;1.00;;;;;;6124860;23;19998;-84
2022/01/05 01:41:13;;;;;;;1.63;0.80;;;7.90;1.00;;;;;;6125206;23;20006;-84
2022/01/05 01:43:38;;;;;;;1.38;0.70;;;8.20;1.00;;;;;;6125803;23;20010;-84
2022/01/05 01:46:05;;;;;;;0.63;0.60;;;8.00;1.00;;;;;;6125876;23;20318;-84
2022/01/05 01:48:31;;;;;;;1.20;0.70;;;8.20;1.00;;;;;;6125518;23;20024;-84
2022/01/05 01:50:57;;;;;;;2.10;0.70;;;7.60;1.00;;;;;;6125862;23;20341;-83
2022/01/05 01:53:23;;;;;;;2.20;0.70;;;7.50;1.00;;;;;;6124886;23;19998;-84
2022/01/05 01:55:49;;;;;;;3.30;0.80;;;7.60;1.00;;;;;;6125008;23;20010;-84
2022/01/05 01:58:18;;;;;;;2.38;0.82;;;7.20;1.00;;;;;;6125975;23;20340;-84
2022/01/05 02:00:44;;;;;;;1.35;0.60;;;7.70;1.00;;;;;;6125875;23;20013;-84
2022/01/05 02:03:12;;;;;;;4.32;1.45;;;7.70;1.00;;;;;;6125652;23;20001;-84
2022/01/05 02:05:38;;;;;;;1.92;0.50;;;7.80;1.00;;;;;;6125192;23;20001;-83
2022/01/05 02:08:04;;;;;;;0.68;0.32;;;7.30;1.00;;;;;;6124579;23;20037;-84
2022/01/05 02:10:30;;;;;;;1.48;0.60;;;7.50;1.00;;;;;;6124672;23;20122;-84
2022/01/05 02:12:55;;;;;;;2.40;0.47;;;7.70;1.00;;;;;;6125473;23;20010;-84
2022/01/05 02:15:21;;;;;;;1.45;0.43;;;7.60;1.00;;;;;;6125282;23;20440;-83
2022/01/05 02:20:28;;;;;;;1.20;0.30;;;7.50;1.00;;;;;;6124999;23;20353;-84
2022/01/05 02:22:54;;;;;;;2.08;0.50;;;7.20;1.00;;;;;;6124457;23;20033;-84
2022/01/05 02:25:20;;;;;;;2.95;0.40;;;7.10;1.00;;;;;;6125731;23;20002;-84
2022/01/05 02:27:48;;;;;;;0.30;0.30;;;7.00;1.00;;;;;;6125056;23;20001;-84
2022/01/05 02:30:18;;;;;;;0.40;0.40;;;7.20;1.00;;;;;;6125405;23;20006;-84
2022/01/05 02:32:44;;;;;;;0.63;0.40;;;7.40;1.00;;;;;;6125378;23;20006;-84
2022/01/05 02:35:10;;;;;;;0.70;0.20;;;7.00;1.00;;;;;;6125266;23;20444;-84
2022/01/05 02:37:44;;;;;;;0.73;0.40;;;7.10;1.00;;;;;;6124876;23;20018;-84
2022/01/05 02:40:12;;;;;;;0.50;0.20;;;6.60;1.00;;;;;;6125600;23;20037;-84
2022/01/05 02:42:38;;;;;;;0.82;0.30;;;6.60;1.00;;;;;;6125532;23;20013;-84
2022/01/05 02:45:04;;;;;;;0.52;0.30;;;7.20;1.00;;;;;;6125246;23;20002;-84
2022/01/05 02:47:30;;;;;;;0.73;0.20;;;6.60;1.00;;;;;;6124876;23;20032;-84
2022/01/05 02:50:00;;;;;;;1.35;0.30;;;7.30;1.00;;;;;;6124884;23;20006;-84
2022/01/05 02:52:25;;;;;;;0.28;0.28;;;7.10;1.20;;;;;;6124464;23;20005;-84
2022/01/05 02:54:51;;;;;;;0.50;0.30;;;6.80;1.00;;;;;;6125502;23;20006;-84
2022/01/05 02:57:17;;;;;;;0.20;0.20;;;6.50;1.00;;;;;;6124761;23;20098;-84
2022/01/05 02:59:42;;;;;;;0.30;0.30;;;6.80;1.00;;;;;;6125090;23;20013;-82
2022/01/05 03:02:08;;;;;;;0.73;0.30;;;7.20;1.00;;;;;;6125328;23;20006;-84
2022/01/05 03:04:34;;;;;;;0.63;0.30;;;7.00;1.00;;;;;;6125420;23;20081;-84
2022/01/05 03:06:59;;;;;;;0.77;0.40;;;6.70;1.00;;;;;;6124099;23;20429;-84
2022/01/05 03:09:26;;;;;;;0.30;0.30;;;6.60;1.00;;;;;;6124520;23;20002;-84
2022/01/05 03:11:51;;;;;;;0.93;0.50;;;7.00;1.20;;;;;;6125184;23;20006;-84
2022/01/05 03:14:17;;;;;;;0.57;0.30;;;7.10;1.00;;;;;;6124481;23;20105;-83
2022/01/05 03:16:43;;;;;;;0.65;0.30;;;7.00;1.00;;;;;;6124563;23;20017;-84
2022/01/05 03:19:08;;;;;;;1.08;0.45;;;7.10;1.00;;;;;;6125095;23;20006;-84
2022/01/05 03:21:34;;;;;;;0.57;0.40;;;6.50;1.00;;;;;;6124030;23;20002;-83
2022/01/05 03:24:00;;;;;;;1.10;0.32;;;7.00;1.00;;;;;;6123924;23;20385;-84
2022/01/05 03:26:25;;;;;;;0.45;0.30;;;6.60;1.00;;;;;;6124497;23;20010;-84
2022/01/05 03:28:51;;;;;;;2.35;0.45;;;6.90;1.00;;;;;;6125241;23;19998;-83
2022/01/05 03:31:16;;;;;;;0.73;0.30;;;6.40;1.00;;;;;;6126111;23;20029;-84
2022/01/05 03:33:42;;;;;;;0.47;0.38;;;6.30;1.00;;;;;;6128211;23;20002;-83
2022/01/05 03:36:08;;;;;;;1.05;0.30;;;6.50;1.00;;;;;;6128004;23;20006;-84
2022/01/05 03:38:33;;;;;;;0.30;0.30;;;6.60;1.00;;;;;;6127946;23;20327;-84
2022/01/05 03:40:59;;;;;;;0.40;0.30;;;6.80;1.00;;;;;;6128622;23;20418;-84
2022/01/05 03:43:25;;;;;;;0.30;0.30;;;6.70;1.30;;;;;;6127907;23;20393;-84
2022/01/05 03:45:51;;;;;;;0.60;0.25;;;6.40;1.00;;;;;;6128400;23;20240;-84
2022/01/05 03:48:18;;;;;;;0.60;0.40;;;7.00;1.00;;;;;;6127724;23;19997;-83
2022/01/05 03:50:44;;;;;;;0.30;0.22;;;7.00;1.00;;;;;;6128134;23;20006;-84
2022/01/05 03:53:10;;;;;;;0.75;0.30;;;6.80;1.00;;;;;;6127224;23;20010;-84
2022/01/05 03:55:38;;;;;;;0.25;0.22;;;6.60;1.00;;;;;;6128315;23;20080;-84
2022/01/05 03:58:04;;;;;;;0.32;0.28;;;6.60;1.00;;;;;;6128460;23;20053;-84
2022/01/05 04:00:34;;;;;;;0.35;0.20;;;6.70;1.00;;;;;;6127798;23;20002;-83
2022/01/05 04:03:00;;;;;;;0.30;0.30;;;6.50;1.00;;;;;;6128090;23;20009;-84
2022/01/05 04:05:28;;;;;;;0.22;0.20;;;6.60;1.00;;;;;;6127389;23;20013;-84
2022/01/05 04:07:53;;;;;;;0.52;0.30;;;6.50;1.00;;;;;;6127653;23;20006;-84
2022/01/05 04:10:19;;;;;;;0.20;0.20;;;7.20;1.00;;;;;;6127641;23;20025;-85
2022/01/05 04:12:45;;;;;;;0.40;0.30;;;6.60;1.00;;;;;;6127850;23;20112;-83
2022/01/05 04:15:11;;;;;;;0.28;0.28;;;7.10;1.00;;;;;;6127836;23;20025;-84
2022/01/05 04:17:36;;;;;;;0.52;0.40;;;7.20;1.00;;;;;;6127596;23;20018;-83
2022/01/05 04:20:03;;;;;;;0.30;0.30;;;7.30;1.00;;;;;;6127353;23;20137;-84
2022/01/05 04:22:29;;;;;;;0.28;0.25;;;6.80;1.00;;;;;;6127288;23;20010;-84
2022/01/05 04:24:54;;;;;;;0.85;0.30;;;7.10;1.00;;;;;;6128211;23;20500;-84
2022/01/05 04:27:20;;;;;;;0.40;0.30;;;7.10;1.00;;;;;;6127807;23;20337;-84
2022/01/05 04:29:46;;;;;;;1.17;0.43;;;6.90;1.00;;;;;;6127849;23;20416;-84
2022/01/05 04:32:12;;;;;;;0.38;0.30;;;7.00;1.00;;;;;;6127988;23;20026;-84
2022/01/05 04:34:38;;;;;;;1.05;0.55;;;6.50;4.80;;;;;;6127458;23;19997;-84
2022/01/05 04:37:05;;;;;;;0.73;0.43;;;6.70;1.00;;;;;;6126388;23;20021;-84
2022/01/05 04:39:31;;;;;;;0.30;0.30;;;6.70;1.00;;;;;;6128045;23;20005;-85
2022/01/05 04:41:56;;;;;;;1.13;0.60;;;6.40;1.00;;;;;;6127370;23;20009;-84
2022/01/05 04:44:22;;;;;;;0.80;0.30;;;6.10;1.00;;;;;;6126422;23;20006;-84
2022/01/05 04:46:48;;;;;;;0.30;0.30;;;6.40;1.00;;;;;;6126702;23;20006;-84
2022/01/05 04:49:13;;;;;;;0.57;0.40;;;6.20;1.00;;;;;;6125744;23;20030;-84
2022/01/05 04:51:39;;;;;;;0.32;0.30;;;7.00;1.00;;;;;;6124613;23;20024;-85
2022/01/05 04:54:05;;;;;;;0.63;0.50;;;6.70;1.00;;;;;;6126246;23;20084;-84
2022/01/05 04:56:31;;;;;;;0.35;0.30;;;7.10;1.00;;;;;;6126220;23;20104;-84
2022/01/05 04:58:56;;;;;;;0.45;0.30;;;7.20;1.00;;;;;;6126126;23;20100;-83
2022/01/05 05:01:23;;;;;;;0.40;0.40;;;7.00;1.00;;;;;;6126184;23;20072;-84
2022/01/05 05:03:49;;;;;;;0.50;0.40;;;7.30;1.00;;;;;;6125903;23;20009;-83
2022/01/05 05:06:15;;;;;;;1.20;0.40;;;7.20;1.00;;;;;;6126027;23;20002;-84
2022/01/05 05:08:41;;;;;;;0.50;0.40;;;7.10;1.00;;;;;;6125945;23;20448;-84
2022/01/05 05:11:07;;;;;;;0.60;0.40;;;7.40;1.00;;;;;;6126263;23;20002;-84
2022/01/05 05:13:32;;;;;;;1.67;0.43;;;7.00;1.00;;;;;;6125783;23;20341;-84
2022/01/05 05:15:58;;;;;;;0.55;0.35;;;6.50;1.00;;;;;;6125730;23;20037;-84
2022/01/05 05:18:24;;;;;;;0.30;0.30;;;6.80;1.00;;;;;;6125429;23;20341;-84
2022/01/05 05:20:49;;;;;;;0.43;0.40;;;6.80;1.00;;;;;;6125961;23;20006;-84
2022/01/05 05:23:16;;;;;;;0.35;0.35;;;7.10;1.00;;;;;;6125686;23;20389;-84
2022/01/05 05:25:42;;;;;;;0.30;0.30;;;6.80;1.00;;;;;;6126560;23;20006;-84
2022/01/05 05:28:08;;;;;;;0.30;0.30;;;7.50;1.00;;;;;;6126023;23;20002;-84
2022/01/05 05:30:35;;;;;;;0.50;0.40;;;7.40;1.00;;;;;;6126019;23;20126;-84
2022/01/05 05:33:01;;;;;;;0.93;0.40;;;7.30;1.00;;;;;;6125734;23;20010;-84
2022/01/05 05:35:27;;;;;;;1.02;0.40;;;7.40;1.00;;;;;;6125844;23;20028;-84
2022/01/05 05:37:53;;;;;;;1.52;0.40;;;6.90;1.00;;;;;;6125614;23;20006;-84
2022/01/05 05:40:19;;;;;;;2.55;0.60;;;7.00;1.00;;;;;;6125801;23;20077;-84
2022/01/05 05:42:45;;;;;;;0.70;0.60;;;7.00;1.00;;;;;;6125812;23;20527;-84
2022/01/05 05:45:10;;;;;;;1.27;0.40;;;7.00;1.00;;;;;;6126000;23;20010;-84
2022/01/05 05:47:36;;;;;;;0.75;0.68;;;7.40;1.00;;;;;;6098975;23;20002;-83
2022/01/05 05:50:03;;;;;;;0.90;0.80;;;7.30;1.00;;;;;;6125172;23;20017;-84
2022/01/05 05:52:28;;;;;;;1.13;0.90;;;6.90;1.00;;;;;;6125123;23;20072;-84
2022/01/05 05:54:54;;;;;;;1.42;1.10;;;6.70;1.00;;;;;;6125829;23;20048;-84
2022/01/05 05:57:20;;;;;;;1.27;0.88;;;7.20;1.00;;;;;;6125617;23;20021;-84
2022/01/05 05:59:45;;;;;;;1.10;1.00;;;6.70;1.00;;;;;;6125217;23;19998;-84
2022/01/05 06:02:11;;;;;;;1.58;1.05;;;6.70;1.00;;;;;;6125585;23;20441;-84
2022/01/05 06:04:36;;;;;;;1.30;1.20;;;6.60;1.00;;;;;;6125175;23;20069;-84
2022/01/05 06:07:03;;;;;;;1.70;1.45;;;6.60;1.00;;;;;;6125573;23;20005;-84
2022/01/05 06:09:28;;;;;;;1.33;1.23;;;6.70;1.00;;;;;;6124979;23;20025;-84
2022/01/05 06:11:54;;;;;;;2.85;1.27;;;7.00;1.00;;;;;;6125772;23;20006;-84
2022/01/05 06:14:19;;;;;;;2.20;1.40;;;6.80;1.00;;;;;;6125335;23;20013;-84
2022/01/05 06:16:45;;;;;;;1.98;1.55;;;6.90;1.00;;;;;;6125175;23;20479;-84
2022/01/05 06:19:11;;;;;;;1.50;1.40;;;6.60;1.00;;;;;;6125473;23;20468;-84
2022/01/05 06:21:37;;;;;;;1.52;1.42;;;6.40;1.00;;;;;;6124951;23;20002;-84
2022/01/05 06:24:03;;;;;;;2.20;1.50;;;7.00;1.00;;;;;;6125116;23;20010;-84
2022/01/05 06:26:28;;;;;;;1.60;1.50;;;6.60;1.00;;;;;;6125965;23;20038;-84
2022/01/05 06:28:54;;;;;;;2.00;1.65;;;6.90;1.00;;;;;;6125389;23;20336;-84
2022/01/05 06:31:20;;;;;;;1.73;1.23;;;7.10;1.00;;;;;;6124796;23;20010;-84
2022/01/05 06:33:45;;;;;;;1.23;1.13;;;7.00;1.00;;;;;;6125339;23;20002;-84
2022/01/05 06:36:11;;;;;;;2.05;1.35;;;6.70;1.00;;;;;;6124126;23;20072;-84
2022/01/05 06:38:36;;;;;;;1.90;1.50;;;6.40;1.00;;;;;;6125252;23;20049;-83
2022/01/05 06:41:02;;;;;;;2.10;1.25;;;6.50;1.00;;;;;;6125659;23;20032;-83
2022/01/05 06:43:30;;;;;;;1.20;1.10;;;6.00;1.00;;;;;;6125056;23;20002;-84
2022/01/05 06:45:56;;;;;;;1.65;1.40;;;6.30;1.00;;;;;;6125008;23;20006;-83
2022/01/05 06:48:22;;;;;;;1.20;1.10;;;6.20;1.00;;;;;;6125447;23;20049;-84
2022/01/05 06:50:47;;;;;;;1.70;1.20;;;5.80;1.00;;;;;;6124671;23;20002;-83
2022/01/05 06:53:14;;;;;;;1.98;1.77;;;6.40;1.00;;;;;;6125673;23;20353;-83
2022/01/05 06:55:40;;;;;;;1.50;1.30;;;6.40;1.00;;;;;;6125548;23;19998;-83
2022/01/05 06:58:05;;;;;;;1.90;1.33;;;6.00;1.00;;;;;;6125277;23;20021;-83
2022/01/05 07:00:31;;;;;;;1.77;1.40;;;6.30;1.00;;;;;;6125082;23;20445;-84
2022/01/05 07:02:57;;;;;;;1.83;1.40;;;6.00;1.00;;;;;;6126087;23;20469;-88
2022/01/05 07:05:23;;;;;;;2.55;1.40;;;6.30;1.00;;;;;;6124078;23;20013;-87
2022/01/05 07:07:49;;;;;;;1.50;1.30;;;6.40;1.00;;;;;;6125530;23;20342;-87
2022/01/05 07:10:15;;;;;;;1.40;1.30;;;6.10;1.00;;;;;;6125169;23;20076;-90
2022/01/05 07:12:41;;;;;;;2.10;1.25;;;6.30;1.00;;;;;;6125186;23;20457;-89
2022/01/05 07:15:07;;;;;;;1.38;1.27;;;6.20;1.00;;;;;;6124787;23;20033;-90
2022/01/05 07:17:33;;;;;;;1.80;1.33;;;6.10;1.00;;;;;;6125752;23;20468;-90
2022/01/05 07:19:59;;;;;;;1.50;1.20;;;6.10;4.90;;;;;;6125437;23;19998;-90
2022/01/05 07:22:25;;;;;;;2.42;1.20;;;6.30;1.00;;;;;;6124973;23;20033;-88
2022/01/05 07:24:50;;;;;;;3.17;1.40;;;6.20;1.00;;;;;;6099333;23;20006;-88
2022/01/05 07:27:16;;;;;;;1.95;1.20;;;6.70;1.00;;;;;;6124269;23;20330;-88
2022/01/05 07:29:42;;;;;;;1.70;1.23;;;6.70;1.00;;;;;;6125602;23;20002;-88
2022/01/05 07:32:08;;;;;;;1.40;1.30;;;6.40;1.00;;;;;;6125017;23;20492;-89
2022/01/05 07:34:34;;;;;;;1.10;0.95;;;6.50;1.00;;;;;;6124357;23;20084;-88
2022/01/05 07:36:59;;;;;;;1.58;1.23;;;6.90;1.00;;;;;;6124702;23;20092;-88
2022/01/05 07:39:25;;;;;;;1.63;1.52;;;6.70;1.00;;;;;;6125507;23;20008;-88
2022/01/05 07:41:51;;;;;;;1.83;1.50;;;6.50;1.00;;;;;;6124993;23;20006;-89
2022/01/05 07:44:16;;;;;;;1.80;1.17;;;6.30;1.00;;;;;;6125662;23;20002;-92
2022/01/05 07:46:42;;;;;;;2.35;1.38;;;6.60;1.00;;;;;;6126405;23;20322;-87
2022/01/05 07:49:08;;;;;;;1.60;1.40;;;6.00;1.00;;;;;;6123735;23;20054;-89
2022/01/05 07:51:34;;;;;;;2.05;1.13;;;6.40;1.00;;;;;;6126803;23;20034;-94
2022/01/05 07:54:01;;;;;;;2.97;2.75;;;6.20;1.00;;;;;;6107922;23;20002;-91
2022/01/05 07:56:27;;;;;;;1.48;1.38;;;6.30;7.50;;;;;;6124778;23;20030;-90
2022/01/05 07:58:53;;;;;;;1.60;1.25;;;5.40;2.60;;;;;;6126307;23;20065;-93
2022/01/05 08:01:19;;;;;;;1.48;0.88;;;5.80;1.00;;;;;;6126022;23;20006;-90
2022/01/05 08:03:48;;;;;;;0.80;0.70;;;5.80;2.70;;;;;;6124667;23;20013;-90
2022/01/05 08:06:14;;;;;;;2.60;1.10;;;5.80;3.90;;;;;;6125061;23;20005;-90
2022/01/05 08:08:40;;;;;;;1.80;0.80;;;5.40;2.70;;;;;;6124938;23;20033;-90
2022/01/05 08:11:06;;;;;;;2.83;1.10;;;5.70;3.60;;;;;;6099231;23;20069;-90
2022/01/05 08:13:31;;;;;;;1.63;1.10;;;5.10;4.30;;;;;;6099171;23;20093;-90
2022/01/05 08:15:57;;;;;;;1.75;1.08;;;5.10;4.10;;;;;;6125079;23;20018;-90
2022/01/05 08:18:23;;;;;;;5.25;2.72;;;5.90;4.10;;;;;;6125390;23;20006;-90
2022/01/05 08:20:49;;;;;;;2.00;0.88;;;5.20;3.70;;;;;;6100882;23;20159;-90
2022/01/05 08:23:19;;;;;;;1.48;0.95;;;5.60;4.50;;;;;;6126672;23;20057;-90
2022/01/05 08:25:46;;;;;;;2.17;1.15;;;5.10;5.70;;;;;;6100849;23;20032;-91
2022/01/05 08:28:11;;;;;;;2.80;1.13;;;5.20;5.50;;;;;;6101347;23;20002;-90
2022/01/05 08:30:38;;;;;;;3.58;1.15;;;5.80;4.30;;;;;;6127181;23;20077;-90
2022/01/05 08:33:05;;;;;;;2.65;1.70;;;5.90;4.80;;;;;;6126266;23;20006;-90
2022/01/05 08:35:31;;;;;;;3.60;0.90;;;6.10;4.40;;;;;;6126590;23;20033;-90
2022/01/05 08:37:57;;;;;;;1.70;1.00;;;6.20;3.40;;;;;;6126859;23;20006;-90
2022/01/05 08:40:25;;;;;;;2.88;1.10;;;5.80;4.80;;;;;;6126247;23;20065;-90
2022/01/05 08:42:52;;;;;;;1.73;1.13;;;6.60;4.00;;;;;;6126890;23;20002;-90
2022/01/05 08:45:18;;;;;;;1.42;0.93;;;6.10;3.60;;;;;;6126897;23;19998;-90
2022/01/05 08:47:49;;;;;;;2.33;1.50;;;6.60;1.00;;;;;;6125837;23;20029;-90
2022/01/05 08:50:20;;;;;;;3.03;1.10;;;6.20;2.30;;;;;;6126843;23;20006;-91
2022/01/05 08:52:46;;;;;;;2.33;1.40;;;6.30;2.50;;;;;;6127211;23;20010;-91
2022/01/05 08:55:13;;;;;;;3.42;1.20;;;6.70;1.00;;;;;;6126456;23;20002;-90
2022/01/05 08:57:40;;;;;;;6.43;1.42;;;6.80;2.00;;;;;;6126837;23;20017;-90
2022/01/05 09:00:07;;;;;;;2.83;1.20;;;6.30;1.20;;;;;;6127004;23;20006;-90
2022/01/05 09:02:33;;;;;;;2.97;1.92;;;6.40;1.00;;;;;;6100233;23;20013;-90
2022/01/05 09:04:59;;;;;;;3.25;1.30;;;6.70;1.00;;;;;;6126644;23;20397;-90
2022/01/05 09:07:24;;;;;;;1.67;1.17;;;6.80;1.00;;;;;;6126510;23;19998;-90
2022/01/05 09:09:50;;;;;;;1.92;1.30;;;7.10;1.00;;;;;;6100382;23;20006;-91
2022/01/05 09:12:16;;;;;;;2.78;1.38;;;7.10;1.00;;;;;;6126322;23;20010;-91
2022/01/05 09:14:41;;;;;;;4.53;1.67;;;6.70;1.00;;;;;;6126819;23;20092;-91
2022/01/05 09:17:08;;;;;;;3.08;1.13;;;6.40;1.00;;;;;;6125930;23;20049;-91
2022/01/05 09:19:34;;;;;;;3.97;1.42;;;6.00;2.50;;;;;;6127070;23;20006;-90
2022/01/05 09:22:00;;;;;;;3.17;1.30;;;6.00;1.80;;;;;;6126695;23;20026;-89
2022/01/05 09:24:26;;;;;;;2.55;1.25;;;6.00;1.90;;;;;;6126073;23;20009;-91
2022/01/05 09:26:52;;;;;;;2.70;1.50;;;5.50;1.70;;;;;;6126977;23;20010;-90
2022/01/05 09:29:18;;;;;;;4.82;1.80;;;5.40;1.50;;;;;;6126069;23;19998;-90
2022/01/05 09:31:44;;;;;;;3.72;1.85;;;5.90;1.50;;;;;;6126255;23;20012;-90
2022/01/05 09:34:10;;;;;;;2.08;1.65;;;5.80;9.20;;;;;;6125848;23;20495;-91
2022/01/05 09:36:42;;;;;;;3.72;1.50;;;5.40;1.30;;;;;;6099972;23;20010;-91
2022/01/05 09:42:05;;;;;;;3.60;1.48;;;5.70;4.20;;;;;;6126233;23;20054;-90
2022/01/05 09:44:33;;;;;;;6.03;1.80;;;5.50;4.30;;;;;;6125714;23;20013;-90
2022/01/05 09:47:11;;;;;;;5.57;2.42;;;4.80;4.70;;;;;;6126000;23;20329;-89
2022/01/05 09:49:59;;;;;;;3.40;1.83;;;4.90;4.80;;;;;;6126066;23;20009;-90
2022/01/05 09:52:25;;;;;;;3.67;1.70;;;4.90;4.70;;;;;;6100144;23;20012;-90
2022/01/05 09:54:52;;;;;;;4.63;1.50;;;5.10;4.00;;;;;;6126493;23;20006;-90
2022/01/05 09:57:21;;;;;;;3.95;1.70;;;5.10;5.10;;;;;;6126302;23;20042;-90
2022/01/05 09:59:47;;;;;;;3.85;1.90;;;5.10;4.10;;;;;;6126618;23;20026;-89
2022/01/05 10:02:16;;;;;;;7.53;1.95;;;4.60;4.80;;;;;;6125174;23;20092;-90
2022/01/05 10:04:42;;;;;;;5.85;2.03;;;4.60;4.40;;;;;;6126332;23;20006;-90
2022/01/05 10:07:11;;;;;;;20.45;13.88;;;5.00;4.10;;;;;;6125703;23;20012;-91
2022/01/05 10:09:37;;;;;;;12.95;6.22;;;5.40;4.30;;;;;;6126707;23;20002;-90
2022/01/05 10:12:04;;;;;;;6.90;3.47;;;5.20;4.80;;;;;;6125652;23;20006;-90
2022/01/05 10:14:31;;;;;;;7.60;4.63;;;4.80;4.20;;;;;;6125651;23;20014;-90
2022/01/05 10:17:02;;;;;;;5.47;2.72;;;5.40;3.80;;;;;;6124720;23;20441;-90
2022/01/05 10:19:27;;;;;;;6.45;2.75;;;5.20;5.00;;;;;;6126473;23;20029;-90
2022/01/05 10:21:53;;;;;;;6.22;2.90;;;4.80;4.40;;;;;;6125862;23;20433;-90
2022/01/05 10:24:42;;;;;;;27.75;19.10;;;5.30;3.70;;;;;;6126080;23;20388;-90
2022/01/05 10:27:14;;;;;;;7.75;4.18;;;5.20;3.70;;;;;;6125745;23;20436;-90
2022/01/05 10:30:10;;;;;;;7.57;2.40;;;5.80;4.10;;;;;;6125730;23;20006;-89
2022/01/05 10:32:36;;;;;;;5.40;2.60;;;6.10;4.30;;;;;;6124093;23;20392;-89
2022/01/05 10:35:01;;;;;;;6.57;2.38;;;5.90;3.10;;;;;;6125732;23;20013;-90
2022/01/05 10:37:27;;;;;;;8.27;4.18;;;6.60;2.60;;;;;;6124930;23;20440;-90
2022/01/05 10:40:06;;;;;;;5.50;2.88;;;8.80;1.00;;;;;;6126109;23;20421;-90
2022/01/05 10:42:32;;;;;;;4.90;2.83;;;10.20;1.00;;;;;;6125448;23;20002;-90
2022/01/05 10:44:58;;;;;;;6.05;2.30;;;8.70;1.00;;;;;;6125586;23;20073;-90
2022/01/05 10:47:25;;;;;;;4.35;1.75;;;7.90;1.00;;;;;;6125247;23;20009;-90
2022/01/05 10:49:51;;;;;;;7.25;1.98;;;7.50;1.00;;;;;;6125804;23;20002;-90
2022/01/05 10:52:28;;;;;;;5.32;1.65;;;6.80;1.00;;;;;;6099880;23;20001;-90
2022/01/05 10:55:09;;;;;;;6.28;2.67;;;7.50;1.00;;;;;;6126605;23;20014;-90
2022/01/05 10:57:35;;;;;;;7.15;1.88;;;10.90;1.00;;;;;;6125709;23;20010;-91
2022/01/05 11:00:01;;;;;;;4.70;1.67;;;17.20;1.00;;;;;;6125755;23;20002;-91
2022/01/05 11:02:34;;;;;;;3.22;1.75;;;19.60;1.00;;;;;;6125182;23;20006;-91
2022/01/05 11:05:09;;;;;;;4.45;2.58;;;23.10;1.00;;;;;;6099103;23;20045;-91
2022/01/05 11:07:39;;;;;;;3.92;1.60;;;24.10;1.00;;;;;;6125371;23;20029;-92
2022/01/05 11:10:09;;;;;;;8.20;2.97;;;24.50;1.00;;;;;;6126317;23;20006;-91
2022/01/05 11:12:45;;;;;;;6.43;3.40;;;23.80;1.00;;;;;;6126073;23;20010;-91
2022/01/05 11:15:30;;;;;;;3.13;1.55;;;19.60;1.00;;;;;;6124762;23;20014;-91
2022/01/05 11:18:11;;;;;;;3.53;1.70;;;17.80;1.00;;;;;;6125658;23;20038;-91
2022/01/05 11:21:01;;;;;;;3.60;1.90;;;13.50;1.00;;;;;;6125009;23;20062;-91
2022/01/05 11:23:28;;;;;;;6.35;1.70;;;12.40;1.00;;;;;;6125613;23;20097;-90
2022/01/05 11:25:56;;;;;;;5.18;1.80;;;10.90;1.00;;;;;;6125338;23;20075;-91
2022/01/05 11:28:24;;;;;;;4.97;1.80;;;10.30;1.00;;;;;;6126367;23;20448;-91
2022/01/05 11:30:53;;;;;;;6.75;1.60;;;9.60;1.00;;;;;;6124940;23;20002;-91
2022/01/05 11:33:20;;;;;;;3.78;1.60;;;9.30;1.00;;;;;;6098921;23;20089;-91
2022/01/05 11:35:45;;;;;;;3.83;1.50;;;9.40;1.00;;;;;;6124974;23;20066;-90
2022/01/05 11:38:12;;;;;;;5.75;1.75;;;10.20;1.00;;;;;;6125998;23;20429;-90
2022/01/05 11:40:44;;;;;;;4.72;2.08;;;10.80;1.00;;;;;;6125811;23;20443;-90
2022/01/05 11:43:20;;;;;;;3.20;1.60;;;11.80;1.00;;;;;;6125467;23;20037;-91
2022/01/05 11:45:47;;;;;;;4.28;1.40;;;13.10;1.00;;;;;;6098727;23;20345;-91
2022/01/05 11:48:26;;;;;;;4.72;1.63;;;19.60;1.00;;;;;;6124830;23;20010;-91
2022/01/05 11:50:54;;;;;;;4.07;1.60;;;19.00;1.00;;;;;;6124837;23;20027;-90
2022/01/05 11:53:34;;;;;;;3.88;1.33;;;15.50;1.00;;;;;;6101222;23;20005;-91
2022/01/05 11:55:59;;;;;;;4.40;1.50;;;18.30;1.00;;;;;;6127543;23;20041;-91
2022/01/05 11:58:27;;;;;;;3.13;1.42;;;19.80;1.00;;;;;;6127099;23;20006;-91
2022/01/05 12:01:11;;;;;;;4.68;1.27;;;14.80;1.00;;;;;;6126994;23;20444;-92
2022/01/05 12:03:53;;;;;;;4.55;1.55;;;16.70;1.00;;;;;;6127361;23;20010;-91
2022/01/05 12:06:21;;;;;;;2.58;1.20;;;19.80;1.00;;;;;;6126956;23;20010;-91
2022/01/05 12:08:52;;;;;;;3.83;1.38;;;18.70;1.00;;;;;;6127340;23;20002;-91
2022/01/05 12:11:38;;;;;;;2.67;1.60;;;21.20;1.00;;;;;;6127493;23;20009;-91
2022/01/05 12:14:06;;;;;;;4.22;1.63;;;17.50;1.00;;;;;;6127568;23;20024;-91
2022/01/05 12:16:53;;;;;;;3.35;1.60;;;16.10;1.00;;;;;;6125868;23;20014;-91
2022/01/05 12:19:20;;;;;;;4.97;1.90;;;15.30;1.00;;;;;;6126906;23;20013;-91
2022/01/05 12:21:48;;;;;;;2.58;1.80;;;18.40;1.00;;;;;;6101247;23;20013;-90
2022/01/05 12:24:15;;;;;;;3.70;1.40;;;17.80;1.00;;;;;;6126978;23;20010;-91
2022/01/05 12:26:41;;;;;;;4.40;1.50;;;19.70;1.00;;;;;;6127954;23;20336;-92
2022/01/05 12:29:07;;;;;;;4.85;2.65;;;20.80;1.00;;;;;;6127312;23;20002;-91
2022/01/05 12:31:48;;;;;;;3.83;1.58;;;18.90;1.00;;;;;;6126451;23;20006;-91
2022/01/05 12:34:34;;;;;;;4.30;1.73;;;20.70;1.00;;;;;;6127124;23;19994;-91
2022/01/05 12:36:59;;;;;;;5.15;1.55;;;21.00;1.00;;;;;;6126728;23;20045;-91
2022/01/05 12:39:48;;;;;;;3.40;1.60;;;20.60;1.00;;;;;;6126867;23;20467;-91
2022/01/05 12:42:22;;;;;;;3.65;1.75;;;20.50;1.00;;;;;;6126973;23;20084;-91
2022/01/05 12:44:48;;;;;;;2.60;1.20;;;19.80;1.00;;;;;;6100762;23;20013;-92
2022/01/05 12:47:13;;;;;;;3.10;1.40;;;20.60;1.00;;;;;;6125713;23;20419;-91
2022/01/05 12:49:40;;;;;;;2.28;1.38;;;19.20;1.00;;;;;;6126907;23;20077;-91
2022/01/05 12:52:12;;;;;;;4.65;1.50;;;19.80;1.00;;;;;;6100710;23;20006;-91
2022/01/05 12:54:42;;;;;;;3.80;1.50;;;19.10;1.00;;;;;;6126248;23;20417;-91
2022/01/05 12:57:11;;;;;;;3.55;1.50;;;19.30;1.00;;;;;;6127103;23;20085;-91
2022/01/05 12:59:40;;;;;;;4.05;1.73;;;20.30;1.00;;;;;;6127011;23;20038;-92
2022/01/05 13:02:12;;;;;;;5.05;2.08;;;20.00;1.00;;;;;;6125889;23;20014;-91
2022/01/05 13:04:42;;;;;;;6.60;2.10;;;20.50;1.00;;;;;;6126147;23;20343;-91
2022/01/05 13:07:08;;;;;;;4.28;2.42;;;20.30;1.00;;;;;;6127064;23;20448;-91
2022/01/05 13:09:44;;;;;;;3.60;1.40;;;19.90;1.00;;;;;;6126543;23;19998;-92
2022/01/05 13:12:12;;;;;;;7.95;1.95;;;17.10;1.00;;;;;;6126892;23;20002;-91